Time;durP1;ratioP1;P1;durP2;ratioP2;P2;SDS_P1;SDS_P2;PMS_P1;PMS_P2;Temp;Humidity;BMP_temperature;BMP_pressure;BME280_temperature;BME280_humidity;BME280_pressure;Samples;Min_cycle;Max_cycle;Signal;HPM_P1;HPM_P2
2024/02/28 00:02:02;;;;;;;23.00;16.50;;;5.70;99.90;;;;;;5073150;28;20486;-55
2024/02/28 00:04:29;;;;;;;27.00;17.53;;;5.60;99.90;;;;;;5073241;28;20441;-55
2024/02/28 00:06:56;;;;;;;29.27;18.07;;;5.60;99.90;;;;;;5073105;28;20436;-55
2024/02/28 00:09:23;;;;;;;28.93;19.00;;;5.60;99.90;;;;;;5072956;28;20451;-55
2024/02/28 00:11:50;;;;;;;28.63;18.87;;;5.60;99.90;;;;;;5072757;28;20464;-55
2024/02/28 00:14:17;;;;;;;23.87;16.90;;;5.60;99.90;;;;;;5073131;28;20452;-55
2024/02/28 00:16:45;;;;;;;29.97;19.10;;;5.60;99.90;;;;;;5072869;28;20487;-55
2024/02/28 00:19:13;;;;;;;29.20;18.50;;;5.60;99.90;;;;;;5073032;28;20444;-55
2024/02/28 00:21:41;;;;;;;26.03;18.50;;;5.60;99.90;;;;;;5073334;28;20547;-55
2024/02/28 00:24:08;;;;;;;34.07;21.33;;;5.50;99.90;;;;;;5072704;28;20445;-55
2024/02/28 00:26:35;;;;;;;35.93;21.40;;;5.50;99.90;;;;;;5072965;28;20440;-55
2024/02/28 00:29:01;;;;;;;32.13;20.17;;;5.60;99.90;;;;;;5072959;28;20441;-55
2024/02/28 00:31:28;;;;;;;35.63;21.77;;;5.60;99.90;;;;;;5072917;28;20448;-55
2024/02/28 00:33:55;;;;;;;33.17;20.97;;;5.60;99.90;;;;;;5072630;28;20451;-55
2024/02/28 00:36:23;;;;;;;40.37;25.77;;;5.60;99.90;;;;;;5072829;28;20480;-56
2024/02/28 00:38:50;;;;;;;40.17;24.23;;;5.60;99.90;;;;;;5072803;28;20536;-55
2024/02/28 00:41:17;;;;;;;41.17;24.57;;;5.60;99.90;;;;;;5072820;28;20532;-55
2024/02/28 00:43:44;;;;;;;40.77;25.30;;;5.60;99.90;;;;;;5072492;28;20961;-56
2024/02/28 00:46:12;;;;;;;44.53;27.90;;;5.60;99.90;;;;;;5072834;28;20528;-55
2024/02/28 00:48:38;;;;;;;39.40;25.27;;;5.60;99.90;;;;;;5073045;28;20521;-56
2024/02/28 00:51:05;;;;;;;37.73;24.70;;;5.50;99.90;;;;;;5073371;28;20444;-55
2024/02/28 00:53:34;;;;;;;39.97;23.70;;;5.50;99.90;;;;;;5075994;28;20480;-56
2024/02/28 00:56:00;;;;;;;36.67;22.80;;;5.50;99.90;;;;;;5075861;28;20501;-56
2024/02/28 00:58:29;;;;;;;36.70;23.77;;;5.50;99.90;;;;;;5076066;28;20446;-56
2024/02/28 01:00:57;;;;;;;41.43;25.30;;;5.40;99.90;;;;;;5076325;28;20456;-55
2024/02/28 01:03:24;;;;;;;42.53;27.00;;;5.40;99.90;;;;;;5076226;28;20932;-55
2024/02/28 01:05:51;;;;;;;45.03;27.77;;;5.40;99.90;;;;;;5076173;28;20441;-56
2024/02/28 01:08:18;;;;;;;38.83;23.87;;;5.40;99.90;;;;;;5076158;28;20436;-55
2024/02/28 01:10:47;;;;;;;40.37;23.60;;;5.40;99.90;;;;;;5076259;28;20447;-56
2024/02/28 01:13:14;;;;;;;46.23;28.87;;;5.30;99.90;;;;;;5075799;28;20475;-55
2024/02/28 01:15:41;;;;;;;39.70;24.60;;;5.30;99.90;;;;;;5076856;28;20883;-56
2024/02/28 01:18:08;;;;;;;40.27;25.20;;;5.30;99.90;;;;;;5076881;28;20476;-56
2024/02/28 01:20:35;;;;;;;45.70;30.20;;;5.30;99.90;;;;;;5076702;28;20466;-56
2024/02/28 01:23:02;;;;;;;47.80;27.23;;;5.30;99.90;;;;;;5076343;28;20483;-55
2024/02/28 01:25:29;;;;;;;45.90;26.17;;;5.30;99.90;;;;;;5076042;28;20440;-55
2024/02/28 01:27:58;;;;;;;45.33;28.00;;;5.20;99.90;;;;;;5075834;28;20440;-56
2024/02/28 01:30:25;;;;;;;44.20;27.30;;;5.20;99.90;;;;;;5076142;28;20437;-55
2024/02/28 01:32:52;;;;;;;47.30;27.80;;;5.20;99.90;;;;;;5075723;28;21001;-55
2024/02/28 01:35:18;;;;;;;45.60;28.67;;;5.20;99.90;;;;;;5075942;28;20816;-55
2024/02/28 01:37:45;;;;;;;45.27;28.60;;;5.20;99.90;;;;;;5075728;28;20846;-55
2024/02/28 01:40:13;;;;;;;49.40;29.97;;;5.20;99.90;;;;;;5075838;28;20445;-55
2024/02/28 01:42:40;;;;;;;49.60;30.30;;;5.20;99.90;;;;;;5075551;28;20457;-55
2024/02/28 01:45:13;;;;;;;45.87;28.63;;;5.20;99.90;;;;;;5075608;28;20451;-55
2024/02/28 01:47:40;;;;;;;52.07;30.63;;;5.20;99.90;;;;;;5075719;28;20422;-56
2024/02/28 01:50:10;;;;;;;52.87;30.80;;;5.20;99.90;;;;;;5075406;28;20527;-55
2024/02/28 01:52:38;;;;;;;54.67;31.20;;;5.20;99.90;;;;;;5075406;28;20469;-55
2024/02/28 01:55:06;;;;;;;53.13;30.10;;;5.20;99.90;;;;;;5075114;28;20449;-56
2024/02/28 01:57:33;;;;;;;55.73;30.63;;;5.20;99.90;;;;;;5075372;28;20480;-55
2024/02/28 02:00:00;;;;;;;50.87;30.73;;;5.20;99.90;;;;;;5075065;28;20444;-55
2024/02/28 02:02:28;;;;;;;55.90;33.07;;;5.20;99.90;;;;;;5074928;28;20471;-55
2024/02/28 02:04:57;;;;;;;59.10;32.33;;;5.20;99.90;;;;;;5074832;28;20444;-55
2024/02/28 02:07:25;;;;;;;52.77;30.93;;;5.20;99.90;;;;;;5075247;28;20480;-55
2024/02/28 02:09:52;;;;;;;53.00;32.27;;;5.20;99.90;;;;;;5075183;28;20499;-56
2024/02/28 02:12:19;;;;;;;53.03;30.73;;;5.10;99.90;;;;;;5074668;28;20990;-56
2024/02/28 02:14:48;;;;;;;51.00;31.10;;;5.20;99.90;;;;;;5074986;28;20448;-55
2024/02/28 02:17:15;;;;;;;64.57;34.80;;;5.10;99.90;;;;;;5074504;28;21096;-55
2024/02/28 02:19:44;;;;;;;62.93;32.57;;;5.10;99.90;;;;;;5074949;28;20528;-56
2024/02/28 02:22:14;;;;;;;56.80;31.77;;;5.10;99.90;;;;;;5074965;28;20487;-56
2024/02/28 02:24:42;;;;;;;56.20;33.53;;;5.10;99.90;;;;;;5074791;28;20531;-55
2024/02/28 02:27:09;;;;;;;58.00;31.00;;;5.10;99.90;;;;;;5074812;28;20444;-56
2024/02/28 02:29:35;;;;;;;65.53;32.87;;;5.10;99.90;;;;;;5074824;28;20452;-55
2024/02/28 02:32:02;;;;;;;56.50;32.10;;;5.10;99.90;;;;;;5074531;28;20469;-55
2024/02/28 02:34:29;;;;;;;54.63;30.30;;;5.00;99.90;;;;;;5074630;28;20448;-55
2024/02/28 02:36:56;;;;;;;56.20;30.23;;;5.00;99.90;;;;;;5074115;28;20483;-55
2024/02/28 02:39:23;;;;;;;59.40;32.23;;;5.00;99.90;;;;;;5074526;28;20462;-55
2024/02/28 02:41:51;;;;;;;63.83;35.30;;;4.90;99.90;;;;;;5074449;28;20467;-55
2024/02/28 02:44:18;;;;;;;63.30;36.70;;;4.90;99.90;;;;;;5074104;28;20524;-55
2024/02/28 02:46:45;;;;;;;77.13;38.70;;;5.00;99.90;;;;;;5074195;28;20472;-55
2024/02/28 02:49:12;;;;;;;68.80;37.67;;;5.00;99.90;;;;;;5074413;28;20819;-55
2024/02/28 02:51:38;;;;;;;68.50;38.07;;;5.00;99.90;;;;;;5074367;28;20461;-55
2024/02/28 02:54:05;;;;;;;90.17;41.37;;;5.00;99.90;;;;;;5073875;28;20457;-55
2024/02/28 02:56:32;;;;;;;79.70;40.30;;;5.00;99.90;;;;;;5074144;28;20441;-55
2024/02/28 02:59:00;;;;;;;81.93;41.67;;;4.90;99.90;;;;;;5074013;28;20444;-55
2024/02/28 03:01:27;;;;;;;75.97;40.13;;;4.90;99.90;;;;;;5074016;28;20550;-56
2024/02/28 03:03:54;;;;;;;89.40;43.63;;;4.90;99.90;;;;;;5074017;28;20453;-55
2024/02/28 03:06:20;;;;;;;75.07;39.17;;;4.90;99.90;;;;;;5074057;28;20447;-55
2024/02/28 03:08:47;;;;;;;66.37;36.80;;;5.00;99.90;;;;;;5073900;28;20531;-55
2024/02/28 03:11:15;;;;;;;87.13;40.90;;;5.00;99.90;;;;;;5073849;28;20447;-55
2024/02/28 03:13:41;;;;;;;82.80;39.97;;;5.00;99.90;;;;;;5073325;28;20460;-55
2024/02/28 03:16:10;;;;;;;90.00;42.47;;;4.90;99.90;;;;;;5073661;28;20441;-55
2024/02/28 03:18:37;;;;;;;80.37;38.87;;;5.00;99.90;;;;;;5073744;28;20476;-55
2024/02/28 03:21:04;;;;;;;80.50;38.97;;;5.00;99.90;;;;;;5073750;28;20450;-55
2024/02/28 03:23:32;;;;;;;92.17;42.07;;;5.00;99.90;;;;;;5073452;28;20461;-55
2024/02/28 03:25:59;;;;;;;99.87;41.40;;;5.00;99.90;;;;;;5073765;28;20436;-56
2024/02/28 03:28:26;;;;;;;91.97;44.77;;;5.10;99.90;;;;;;5073412;28;20452;-57
2024/02/28 03:30:53;;;;;;;94.70;41.60;;;5.10;99.90;;;;;;5073609;28;20445;-57
2024/02/28 03:33:21;;;;;;;79.40;39.57;;;5.10;99.90;;;;;;5073457;28;20472;-57
2024/02/28 03:35:48;;;;;;;84.60;41.27;;;5.10;99.90;;;;;;5073528;28;20448;-57
2024/02/28 03:38:15;;;;;;;94.40;42.77;;;5.10;99.90;;;;;;5073600;28;20484;-56
2024/02/28 03:40:42;;;;;;;78.93;35.93;;;5.00;99.90;;;;;;5073610;28;20454;-56
2024/02/28 03:43:09;;;;;;;75.63;37.20;;;5.10;99.90;;;;;;5073593;28;20519;-56
2024/02/28 03:45:38;;;;;;;82.33;36.30;;;5.10;99.90;;;;;;5073476;28;20445;-56
2024/02/28 03:48:06;;;;;;;117.80;34.30;;;5.00;99.90;;;;;;5073245;28;20969;-56
2024/02/28 03:50:34;;;;;;;89.73;35.10;;;5.00;99.90;;;;;;5073430;28;20444;-56
2024/02/28 03:53:01;;;;;;;66.70;31.80;;;4.90;99.90;;;;;;5073411;28;20471;-56
2024/02/28 03:55:27;;;;;;;76.03;33.60;;;4.80;99.90;;;;;;5073007;28;20452;-56
2024/02/28 03:57:54;;;;;;;82.20;36.37;;;4.70;99.90;;;;;;5073215;28;20485;-56
2024/02/28 04:00:21;;;;;;;92.63;32.60;;;4.70;99.90;;;;;;5073415;28;20823;-56
2024/02/28 04:02:48;;;;;;;132.83;33.93;;;4.70;99.90;;;;;;5073268;28;20462;-56
2024/02/28 04:05:17;;;;;;;90.10;33.00;;;4.70;99.90;;;;;;5073230;28;20445;-56
2024/02/28 04:07:45;;;;;;;99.57;36.00;;;4.60;99.90;;;;;;5072921;28;20502;-56
2024/02/28 04:10:12;;;;;;;68.20;37.17;;;4.60;99.90;;;;;;5072748;28;20943;-56
2024/02/28 04:12:39;;;;;;;102.43;36.67;;;4.60;99.90;;;;;;5073105;28;20457;-56
2024/02/28 04:15:06;;;;;;;76.90;35.97;;;4.60;99.90;;;;;;5072861;28;20488;-56
2024/02/28 04:17:33;;;;;;;84.87;37.67;;;4.60;99.90;;;;;;5073637;28;20480;-56
2024/02/28 04:20:04;;;;;;;101.00;38.60;;;4.60;99.90;;;;;;5072736;28;20994;-56
2024/02/28 04:22:31;;;;;;;82.93;36.97;;;4.60;99.90;;;;;;5073024;28;20571;-56
2024/02/28 04:24:59;;;;;;;110.37;40.13;;;4.70;99.90;;;;;;5073295;28;20448;-56
2024/02/28 04:27:26;;;;;;;115.07;39.17;;;4.70;99.90;;;;;;5077055;28;20443;-56
2024/02/28 04:29:52;;;;;;;81.57;39.17;;;4.80;99.90;;;;;;5077030;28;20444;-56
2024/02/28 04:32:19;;;;;;;87.47;38.67;;;4.80;99.90;;;;;;5076882;28;20461;-56
2024/02/28 04:34:46;;;;;;;81.83;38.83;;;4.80;99.90;;;;;;5076959;28;20445;-56
2024/02/28 04:37:13;;;;;;;80.00;35.97;;;4.80;99.90;;;;;;5076778;28;20441;-56
2024/02/28 04:39:40;;;;;;;80.47;37.70;;;4.90;99.90;;;;;;5076682;28;20450;-56
2024/02/28 04:42:08;;;;;;;84.50;36.97;;;5.00;99.90;;;;;;5076844;28;20460;-56
2024/02/28 04:44:35;;;;;;;84.90;39.60;;;5.00;99.90;;;;;;5077484;28;20444;-56
2024/02/28 04:47:03;;;;;;;99.50;39.37;;;5.00;99.90;;;;;;5077141;28;20448;-56
2024/02/28 04:49:30;;;;;;;90.30;37.90;;;5.10;99.90;;;;;;5076685;28;20451;-56
2024/02/28 04:51:56;;;;;;;100.70;39.30;;;5.10;99.90;;;;;;5076637;28;20552;-56
2024/02/28 04:54:23;;;;;;;74.90;37.63;;;5.10;99.90;;;;;;5076551;28;20503;-56
2024/02/28 04:56:51;;;;;;;90.43;39.03;;;5.10;99.90;;;;;;5076665;28;20440;-56
2024/02/28 04:59:19;;;;;;;95.80;41.00;;;5.10;99.90;;;;;;5076147;28;20990;-56
2024/02/28 05:01:46;;;;;;;83.93;39.77;;;5.20;99.90;;;;;;5076439;28;20456;-56
2024/02/28 05:04:13;;;;;;;84.67;38.13;;;5.20;99.90;;;;;;5076287;28;20494;-56
2024/02/28 05:06:40;;;;;;;95.90;39.13;;;5.10;99.90;;;;;;5076512;28;20445;-56
2024/02/28 05:09:08;;;;;;;93.43;38.40;;;5.20;99.90;;;;;;5076328;28;20442;-56
2024/02/28 05:11:35;;;;;;;99.53;42.43;;;5.20;99.90;;;;;;5076157;28;20835;-56
2024/02/28 05:14:02;;;;;;;97.30;42.40;;;5.20;99.90;;;;;;5076349;28;20459;-56
2024/02/28 05:16:30;;;;;;;92.00;39.27;;;5.20;99.90;;;;;;5075984;28;20444;-56
2024/02/28 05:18:57;;;;;;;93.30;40.67;;;5.10;99.90;;;;;;5076087;28;20484;-56
2024/02/28 05:21:24;;;;;;;107.37;43.77;;;5.10;99.90;;;;;;5076192;28;20819;-56
2024/02/28 05:23:50;;;;;;;99.47;41.03;;;5.10;99.90;;;;;;5076288;28;20489;-56
2024/02/28 05:26:17;;;;;;;96.40;40.77;;;5.10;99.90;;;;;;5076182;28;20455;-56
2024/02/28 05:28:44;;;;;;;98.37;43.17;;;5.20;99.90;;;;;;5075871;28;20816;-56
2024/02/28 05:31:22;;;;;;;100.20;41.20;;;5.20;99.90;;;;;;5076079;28;20441;-56
2024/02/28 05:33:51;;;;;;;103.37;43.50;;;5.20;99.90;;;;;;5075782;28;20428;-56
2024/02/28 05:36:18;;;;;;;98.27;39.90;;;5.30;99.90;;;;;;5076042;28;20464;-56
2024/02/28 05:38:45;;;;;;;108.53;42.83;;;5.30;99.90;;;;;;5074896;28;20853;-55
2024/02/28 05:41:12;;;;;;;101.07;41.00;;;5.30;99.90;;;;;;5075708;28;20445;-56
2024/02/28 05:43:39;;;;;;;101.83;42.50;;;5.40;99.90;;;;;;5075868;28;20455;-56
2024/02/28 05:46:06;;;;;;;102.37;39.30;;;5.40;99.90;;;;;;5075763;28;20451;-56
2024/02/28 05:48:33;;;;;;;86.70;38.13;;;5.40;99.90;;;;;;5075534;28;20445;-56
2024/02/28 05:51:02;;;;;;;95.57;43.20;;;5.40;99.90;;;;;;5075623;28;20472;-56
2024/02/28 05:53:32;;;;;;;102.27;40.90;;;5.40;99.90;;;;;;5075286;28;20472;-56
2024/02/28 05:55:59;;;;;;;116.53;41.40;;;5.40;99.90;;;;;;5075439;28;20448;-56
2024/02/28 05:58:26;;;;;;;105.37;43.50;;;5.50;99.90;;;;;;5075064;28;20491;-56
2024/02/28 06:00:53;;;;;;;104.67;41.77;;;5.50;99.90;;;;;;5075356;28;20524;-56
2024/02/28 06:03:19;;;;;;;94.37;41.60;;;5.50;99.90;;;;;;5075214;28;20464;-55
2024/02/28 06:05:47;;;;;;;92.90;39.80;;;5.50;99.90;;;;;;5075279;28;20444;-56
2024/02/28 06:08:15;;;;;;;95.57;40.70;;;5.50;99.90;;;;;;5075030;28;20445;-56
2024/02/28 06:10:43;;;;;;;100.27;39.23;;;5.50;99.90;;;;;;5075162;28;20922;-56
2024/02/28 06:13:10;;;;;;;94.53;38.80;;;5.50;99.90;;;;;;5075177;28;20468;-55
2024/02/28 06:15:37;;;;;;;90.47;36.00;;;5.50;99.90;;;;;;5075308;28;20445;-56
2024/02/28 06:18:03;;;;;;;90.67;39.57;;;5.50;99.90;;;;;;5074754;28;21010;-56
2024/02/28 06:20:31;;;;;;;92.33;38.43;;;5.50;99.90;;;;;;5074743;28;20939;-56
2024/02/28 06:22:58;;;;;;;96.47;40.80;;;5.50;99.90;;;;;;5075173;28;20476;-56
2024/02/28 06:25:28;;;;;;;91.30;38.90;;;5.50;99.90;;;;;;5075279;28;20444;-56
2024/02/28 06:27:54;;;;;;;99.00;39.73;;;5.50;99.90;;;;;;5076464;28;20447;-56
2024/02/28 06:30:21;;;;;;;94.00;39.70;;;5.50;99.90;;;;;;5075765;28;20943;-56
2024/02/28 06:32:48;;;;;;;89.00;39.13;;;5.50;99.90;;;;;;5074816;28;20472;-56
2024/02/28 06:35:16;;;;;;;90.70;37.80;;;5.50;99.90;;;;;;5074876;28;20445;-56
2024/02/28 06:37:48;;;;;;;91.17;40.03;;;5.50;99.90;;;;;;5075200;28;20455;-56
2024/02/28 06:40:15;;;;;;;92.00;40.90;;;5.50;99.90;;;;;;5075002;28;20433;-56
2024/02/28 06:42:43;;;;;;;91.30;39.13;;;5.50;99.90;;;;;;5074662;28;20461;-56
2024/02/28 06:45:10;;;;;;;78.33;37.30;;;5.50;99.90;;;;;;5074467;28;20441;-56
2024/02/28 06:47:37;;;;;;;74.27;34.83;;;5.50;99.90;;;;;;5074374;28;20445;-56
2024/02/28 06:50:05;;;;;;;72.33;34.50;;;5.60;99.90;;;;;;5073329;28;20444;-56
2024/02/28 06:52:32;;;;;;;74.57;33.60;;;5.60;99.90;;;;;;5074220;28;20563;-56
2024/02/28 06:54:59;;;;;;;74.70;33.90;;;5.60;99.90;;;;;;5073892;28;20946;-56
2024/02/28 06:57:26;;;;;;;78.27;34.17;;;5.60;99.90;;;;;;5073844;28;20535;-56
2024/02/28 06:59:54;;;;;;;74.00;34.07;;;5.60;99.90;;;;;;5074109;28;20488;-56
2024/02/28 07:02:21;;;;;;;68.00;32.27;;;5.60;99.90;;;;;;5073840;28;20467;-55
2024/02/28 07:04:48;;;;;;;72.23;34.47;;;5.60;99.90;;;;;;5074072;28;20444;-56
2024/02/28 07:07:15;;;;;;;81.80;33.53;;;5.60;99.90;;;;;;5073981;28;20447;-55
2024/02/28 07:09:41;;;;;;;73.87;34.30;;;5.60;99.90;;;;;;5074678;28;20447;-56
2024/02/28 07:12:08;;;;;;;69.87;32.90;;;5.60;99.90;;;;;;5073854;28;20469;-55
2024/02/28 07:14:35;;;;;;;72.60;35.57;;;5.70;99.90;;;;;;5073483;28;20451;-56
2024/02/28 07:17:03;;;;;;;79.73;35.13;;;5.70;99.90;;;;;;5073542;28;20444;-56
2024/02/28 07:19:30;;;;;;;80.07;36.20;;;5.70;99.90;;;;;;5073398;28;20579;-56
2024/02/28 07:21:57;;;;;;;77.43;34.70;;;5.70;99.90;;;;;;5073640;28;20556;-55
2024/02/28 07:24:24;;;;;;;72.17;33.53;;;5.70;99.90;;;;;;5073723;28;20448;-56
2024/02/28 07:26:51;;;;;;;73.17;35.80;;;5.70;99.90;;;;;;5073425;28;20444;-56
2024/02/28 07:29:17;;;;;;;79.53;34.50;;;5.80;99.90;;;;;;5073593;28;20438;-56
2024/02/28 07:31:45;;;;;;;73.53;34.17;;;5.80;99.90;;;;;;5073444;28;20560;-56
2024/02/28 07:34:13;;;;;;;68.17;33.37;;;5.80;99.90;;;;;;5073584;28;20449;-56
2024/02/28 07:36:40;;;;;;;73.03;33.70;;;5.90;99.90;;;;;;5073318;28;20539;-56
2024/02/28 07:39:07;;;;;;;86.80;36.83;;;5.90;99.90;;;;;;5073164;28;21036;-56
2024/02/28 07:41:33;;;;;;;76.73;35.00;;;5.90;99.90;;;;;;5073353;28;20531;-56
2024/02/28 07:44:00;;;;;;;78.43;36.67;;;6.00;99.90;;;;;;5073488;28;20463;-55
2024/02/28 07:46:27;;;;;;;72.27;33.70;;;6.00;99.90;;;;;;5073371;28;20449;-55
2024/02/28 07:48:54;;;;;;;75.30;37.13;;;6.00;99.90;;;;;;5072985;28;20493;-56
2024/02/28 07:51:22;;;;;;;74.97;33.77;;;6.00;99.90;;;;;;5072944;28;20454;-56
2024/02/28 07:53:49;;;;;;;80.80;35.27;;;6.00;99.90;;;;;;5074254;28;20457;-55
2024/02/28 07:56:19;;;;;;;68.30;34.33;;;6.10;99.90;;;;;;5074780;28;20443;-56
2024/02/28 07:58:46;;;;;;;69.93;31.80;;;6.10;99.90;;;;;;5073892;28;20481;-56
2024/02/28 08:01:13;;;;;;;64.23;31.10;;;6.10;99.90;;;;;;5073493;28;20440;-55
2024/02/28 08:03:40;;;;;;;67.90;33.67;;;6.10;99.90;;;;;;5073348;28;20462;-55
2024/02/28 08:06:08;;;;;;;66.30;30.50;;;6.10;99.90;;;;;;5073181;28;20962;-55
2024/02/28 08:08:36;;;;;;;66.73;31.93;;;6.10;99.90;;;;;;5072946;28;20453;-55
2024/02/28 08:11:04;;;;;;;68.80;31.40;;;6.10;99.90;;;;;;5073280;28;20437;-55
2024/02/28 08:13:32;;;;;;;74.60;32.40;;;6.10;99.90;;;;;;5072800;28;20514;-55
2024/02/28 08:15:59;;;;;;;60.90;32.70;;;6.20;99.90;;;;;;5073115;28;20566;-55
2024/02/28 08:18:27;;;;;;;64.43;30.90;;;6.20;99.90;;;;;;5074099;28;20503;-55
2024/02/28 08:20:57;;;;;;;70.47;31.73;;;6.20;99.90;;;;;;5073195;28;20502;-55
2024/02/28 08:23:24;;;;;;;67.37;32.40;;;6.20;99.90;;;;;;5073159;28;20464;-55
2024/02/28 08:25:52;;;;;;;69.90;33.37;;;6.20;99.90;;;;;;5073221;28;20451;-55
2024/02/28 08:28:19;;;;;;;79.50;33.30;;;6.20;99.90;;;;;;5072980;28;20996;-55
2024/02/28 08:30:46;;;;;;;68.07;32.60;;;6.20;99.90;;;;;;5073065;28;20447;-55
2024/02/28 08:33:13;;;;;;;66.23;31.37;;;6.30;99.90;;;;;;5072621;28;20464;-55
2024/02/28 08:35:40;;;;;;;64.20;29.13;;;6.30;99.90;;;;;;5072974;28;20440;-55
2024/02/28 08:38:06;;;;;;;60.33;31.10;;;6.40;99.90;;;;;;5072920;28;20441;-55
2024/02/28 08:40:33;;;;;;;62.93;29.80;;;6.40;99.90;;;;;;5072903;28;20484;-55
2024/02/28 08:43:01;;;;;;;59.73;29.63;;;6.40;99.90;;;;;;5072805;28;20471;-55
2024/02/28 08:45:28;;;;;;;67.57;30.90;;;6.50;99.90;;;;;;5072629;28;20455;-55
2024/02/28 08:47:57;;;;;;;65.73;29.80;;;6.60;99.90;;;;;;5072765;28;20448;-55
2024/02/28 08:50:24;;;;;;;56.40;27.63;;;6.60;99.90;;;;;;5072770;28;20444;-55
2024/02/28 08:52:51;;;;;;;56.90;28.53;;;6.70;99.90;;;;;;5072698;28;20840;-55
2024/02/28 08:55:19;;;;;;;57.87;28.90;;;6.70;99.90;;;;;;5072418;28;20830;-55
2024/02/28 08:57:46;;;;;;;63.57;29.83;;;6.80;99.90;;;;;;5072666;28;20440;-55
2024/02/28 09:00:16;;;;;;;53.40;29.40;;;6.90;99.90;;;;;;5072370;28;21006;-55
2024/02/28 09:02:43;;;;;;;62.53;29.57;;;7.10;99.90;;;;;;5072635;28;20496;-55
2024/02/28 09:05:10;;;;;;;52.70;27.33;;;7.20;99.90;;;;;;5072354;28;20938;-55
2024/02/28 09:07:37;;;;;;;52.70;27.27;;;7.20;99.90;;;;;;5072590;28;20441;-55
2024/02/28 09:10:06;;;;;;;53.03;28.80;;;7.30;99.90;;;;;;5072476;28;20447;-55
2024/02/28 09:12:32;;;;;;;55.70;30.10;;;7.40;99.90;;;;;;5073292;28;21039;-55
2024/02/28 09:14:59;;;;;;;51.60;27.60;;;7.40;99.90;;;;;;5076258;28;20437;-55
2024/02/28 09:17:27;;;;;;;60.73;30.03;;;7.40;99.90;;;;;;5076146;28;20468;-55
2024/02/28 09:19:54;;;;;;;59.70;27.63;;;7.60;99.90;;;;;;5075784;28;20483;-55
2024/02/28 09:22:23;;;;;;;53.30;28.17;;;7.70;99.90;;;;;;5075970;28;20472;-55
2024/02/28 09:24:50;;;;;;;54.70;28.47;;;7.70;99.90;;;;;;5076176;28;20527;-55
2024/02/28 09:27:18;;;;;;;51.00;27.70;;;7.80;99.90;;;;;;5075894;28;20436;-55
2024/02/28 09:29:44;;;;;;;52.03;29.47;;;7.90;99.90;;;;;;5075600;28;20480;-55
2024/02/28 09:32:12;;;;;;;49.90;27.93;;;7.90;99.90;;;;;;5075762;28;20461;-55
2024/02/28 09:34:40;;;;;;;46.33;26.70;;;8.00;99.90;;;;;;5075947;28;20447;-55
2024/02/28 09:37:07;;;;;;;49.57;26.80;;;8.10;99.90;;;;;;5075744;28;20488;-55
2024/02/28 09:39:33;;;;;;;52.17;26.77;;;8.30;99.90;;;;;;5075784;28;20476;-55
2024/02/28 09:42:01;;;;;;;44.37;26.00;;;8.40;99.90;;;;;;5075838;28;20461;-55
2024/02/28 09:44:27;;;;;;;47.00;26.37;;;8.60;99.90;;;;;;5075664;28;20436;-55
2024/02/28 09:46:54;;;;;;;50.93;27.27;;;8.70;99.90;;;;;;5075535;28;20955;-55
2024/02/28 09:49:22;;;;;;;48.73;27.70;;;8.90;99.90;;;;;;5075609;28;20820;-55
2024/02/28 09:51:51;;;;;;;46.77;26.40;;;9.10;99.90;;;;;;5075454;28;20461;-55
2024/02/28 09:54:18;;;;;;;44.80;27.47;;;9.20;99.90;;;;;;5074981;28;20467;-55
2024/02/28 09:56:45;;;;;;;43.73;25.73;;;9.40;99.90;;;;;;5075171;28;20547;-55
2024/02/28 09:59:13;;;;;;;45.63;26.37;;;9.50;99.90;;;;;;5075043;28;21024;-55
2024/02/28 10:01:44;;;;;;;43.50;26.37;;;9.80;99.90;;;;;;5075206;28;20456;-55
2024/02/28 10:04:12;;;;;;;43.60;24.67;;;10.00;99.90;;;;;;5075345;28;20432;-55
2024/02/28 10:06:39;;;;;;;37.90;24.20;;;10.20;99.90;;;;;;5075279;28;20453;-55
2024/02/28 10:09:10;;;;;;;45.13;24.80;;;10.30;99.70;;;;;;5075158;28;20443;-55
2024/02/28 10:11:37;;;;;;;41.00;24.43;;;10.50;99.60;;;;;;5074978;28;20469;-56
2024/02/28 10:14:04;;;;;;;36.50;22.40;;;10.60;98.80;;;;;;5075059;28;20520;-55
2024/02/28 10:16:30;;;;;;;37.80;22.70;;;10.80;98.80;;;;;;5074711;28;20829;-56
2024/02/28 10:18:57;;;;;;;35.53;22.70;;;11.00;98.10;;;;;;5075005;28;20440;-56
2024/02/28 10:21:26;;;;;;;29.23;20.57;;;11.10;97.40;;;;;;5074910;28;20449;-55
2024/02/28 10:23:52;;;;;;;36.00;22.47;;;11.20;97.00;;;;;;5074689;28;20528;-56
2024/02/28 10:26:20;;;;;;;33.30;21.57;;;11.30;96.60;;;;;;5074915;28;20437;-55
2024/02/28 10:28:47;;;;;;;32.47;21.73;;;11.40;96.00;;;;;;5074597;28;20444;-56
2024/02/28 10:31:15;;;;;;;34.90;22.90;;;11.50;95.80;;;;;;5074669;28;20792;-55
2024/02/28 10:33:42;;;;;;;32.70;20.73;;;11.50;95.30;;;;;;5074727;28;20451;-55
2024/02/28 10:36:11;;;;;;;31.60;21.20;;;11.60;95.40;;;;;;5074674;28;20445;-55
2024/02/28 10:38:38;;;;;;;36.70;22.40;;;11.80;95.00;;;;;;5074530;28;20531;-55
2024/02/28 10:41:05;;;;;;;29.80;21.43;;;12.10;94.90;;;;;;5074435;28;20506;-55
2024/02/28 10:43:34;;;;;;;28.30;20.13;;;12.40;94.20;;;;;;5074393;28;20467;-55
2024/02/28 10:46:01;;;;;;;28.00;19.37;;;12.70;93.50;;;;;;5074361;28;20982;-55
2024/02/28 10:48:29;;;;;;;29.97;19.00;;;13.10;92.20;;;;;;5074461;28;20440;-55
2024/02/28 10:50:55;;;;;;;30.77;20.50;;;13.40;91.10;;;;;;5074271;28;20810;-56
2024/02/28 10:53:27;;;;;;;29.70;20.13;;;13.60;89.90;;;;;;5074019;28;20465;-56
2024/02/28 10:56:00;;;;;;;30.37;20.30;;;13.80;89.70;;;;;;5074172;28;20449;-56
2024/02/28 10:58:31;;;;;;;30.63;18.10;;;14.10;86.40;;;;;;5074239;28;20512;-56
2024/02/28 11:00:59;;;;;;;28.60;17.87;;;14.10;84.70;;;;;;5074063;28;20475;-55
2024/02/28 11:03:26;;;;;;;26.53;18.83;;;14.20;85.20;;;;;;5074143;28;20483;-56
2024/02/28 11:05:53;;;;;;;28.10;18.67;;;14.50;85.80;;;;;;5074189;28;20943;-56
2024/02/28 11:08:24;;;;;;;26.70;17.50;;;14.80;82.70;;;;;;5075371;28;20445;-55
2024/02/28 11:10:56;;;;;;;29.23;19.90;;;15.10;79.70;;;;;;5074633;28;20523;-55
2024/02/28 11:13:24;;;;;;;27.10;17.57;;;15.50;78.30;;;;;;5074335;28;20457;-56
2024/02/28 11:15:51;;;;;;;25.37;16.80;;;15.90;77.00;;;;;;5074253;28;20466;-56
2024/02/28 11:18:20;;;;;;;25.80;17.23;;;16.40;74.10;;;;;;5073646;28;20451;-55
2024/02/28 11:20:48;;;;;;;23.87;17.43;;;16.80;69.80;;;;;;5073706;28;21002;-56
2024/02/28 11:23:15;;;;;;;28.47;20.17;;;17.10;65.80;;;;;;5073886;28;20472;-56
2024/02/28 11:25:43;;;;;;;27.57;16.60;;;17.30;64.90;;;;;;5073727;28;20812;-56
2024/02/28 11:28:10;;;;;;;25.57;18.17;;;17.60;64.70;;;;;;5073507;28;20444;-56
2024/02/28 11:30:37;;;;;;;26.17;17.70;;;18.10;64.00;;;;;;5073274;28;20440;-56
2024/02/28 11:33:04;;;;;;;21.33;16.70;;;18.40;61.20;;;;;;5073605;28;20468;-56
2024/02/28 11:35:32;;;;;;;26.83;18.30;;;18.90;61.30;;;;;;5074035;28;20480;-56
2024/02/28 11:37:59;;;;;;;24.43;18.30;;;19.40;58.30;;;;;;5073472;28;20436;-56
2024/02/28 11:40:26;;;;;;;21.97;17.07;;;19.80;57.10;;;;;;5073591;28;20491;-56
2024/02/28 11:42:53;;;;;;;24.17;17.77;;;20.30;55.80;;;;;;5073286;28;20503;-56
2024/02/28 11:45:20;;;;;;;24.93;18.00;;;20.40;52.20;;;;;;5073613;28;20471;-56
2024/02/28 11:47:47;;;;;;;22.13;16.00;;;20.50;53.00;;;;;;5073400;28;20451;-56
2024/02/28 11:50:18;;;;;;;26.53;17.23;;;20.70;50.80;;;;;;5073474;28;20485;-56
2024/02/28 11:52:47;;;;;;;21.43;17.63;;;20.70;49.60;;;;;;5073351;28;20464;-56
2024/02/28 11:55:14;;;;;;;23.70;17.37;;;20.70;50.00;;;;;;5072933;28;20547;-56
2024/02/28 11:57:41;;;;;;;20.63;16.20;;;20.80;48.80;;;;;;5073469;28;20444;-56
2024/02/28 12:00:12;;;;;;;23.90;17.00;;;20.90;49.40;;;;;;5073287;28;20484;-56
2024/02/28 12:02:39;;;;;;;20.03;15.20;;;21.00;48.60;;;;;;5073052;28;20982;-56
2024/02/28 12:05:07;;;;;;;21.20;15.00;;;21.10;48.10;;;;;;5073056;28;20463;-56
2024/02/28 12:07:34;;;;;;;17.17;14.10;;;21.20;47.60;;;;;;5072988;28;20445;-56
2024/02/28 12:10:02;;;;;;;20.00;15.13;;;21.50;47.50;;;;;;5072944;28;20894;-56
2024/02/28 12:12:29;;;;;;;17.83;14.60;;;21.90;47.10;;;;;;5073100;28;20486;-55
2024/02/28 12:14:59;;;;;;;19.83;13.67;;;22.20;45.10;;;;;;5073104;28;20440;-56
2024/02/28 12:17:26;;;;;;;20.13;14.40;;;22.40;45.00;;;;;;5073203;28;20799;-56
2024/02/28 12:19:53;;;;;;;18.30;14.60;;;22.70;44.30;;;;;;5073076;28;20480;-56
2024/02/28 12:22:20;;;;;;;15.87;13.10;;;22.70;42.80;;;;;;5073142;28;20464;-56
2024/02/28 12:24:46;;;;;;;15.90;13.90;;;22.80;42.70;;;;;;5072767;28;20449;-56
2024/02/28 12:27:15;;;;;;;19.00;13.87;;;22.90;42.20;;;;;;5073184;28;20449;-56
2024/02/28 12:29:41;;;;;;;17.80;15.70;;;23.10;41.10;;;;;;5073089;28;20445;-56
2024/02/28 12:32:09;;;;;;;20.47;15.60;;;23.20;40.40;;;;;;5072851;28;20553;-56
2024/02/28 12:34:36;;;;;;;16.57;14.60;;;23.20;40.70;;;;;;5072983;28;20439;-56